Willmathsville, Missouri
Current Conditions -  °F | °C
As of 1:55 PM on Thursday 27 Nov 2014 (Local Time) from KIRK Reporting Station
Clear Clear  
Wind Chill: 19°   Ceiling: Unl
Heat Index: 27°   Visibility: 10mi
Dew Point: 15°   Wind: 7mph
Humidity: 61%   Direction: 310°NW
Pressure: 30.46"   Gusts: NA
Location:  40.3435°N, 92.5364°W
Report Text: KIRK 271955Z AUTO 31006KT 10SM CLR M03/M09 A3046 RMK AO2 SLP330 T10281094
Loading
Personal Weather Stations






























Interactive Weather Map New forecast layout! Learn more

10-Day Weather Forecast

Advertisements
Track Severe Weather on mobile